Time;durP1;ratioP1;P1;durP2;ratioP2;P2;SDS_P1;SDS_P2;PMS_P1;PMS_P2;Temp;Humidity;BMP_temperature;BMP_pressure;BME280_temperature;BME280_humidity;BME280_pressure;Samples;Min_cycle;Max_cycle;Signal;HPM_P1;HPM_P2
2020/12/21 00:01:05;;;;;;;6.50;3.70;;;21.30;56.60;;;;;;5162407;28;20172;-77
2020/12/21 00:03:36;;;;;;;5.55;3.58;;;21.30;56.20;;;;;;5163214;28;20030;-79
2020/12/21 00:06:16;;;;;;;4.82;3.83;;;21.30;56.60;;;;;;5154496;28;20038;-79
2020/12/21 00:08:46;;;;;;;4.40;3.78;;;21.30;56.70;;;;;;5143200;28;20378;-78
2020/12/21 00:11:17;;;;;;;4.53;3.58;;;21.30;56.40;;;;;;5154959;28;20047;-79
2020/12/21 00:13:47;;;;;;;4.55;3.80;;;21.30;56.70;;;;;;5146445;28;20031;-78
2020/12/21 00:16:18;;;;;;;4.10;3.50;;;21.30;56.60;;;;;;5140493;28;20058;-78
2020/12/21 00:18:48;;;;;;;4.68;3.75;;;21.30;56.60;;;;;;5155609;28;20034;-78
2020/12/21 00:21:19;;;;;;;4.70;3.72;;;21.30;56.50;;;;;;5161046;28;20085;-79
2020/12/21 00:23:49;;;;;;;4.15;3.60;;;21.30;56.50;;;;;;5147511;28;20035;-79
2020/12/21 00:26:20;;;;;;;3.72;3.42;;;21.30;56.50;;;;;;5146760;28;20030;-79
2020/12/21 00:28:50;;;;;;;4.43;3.53;;;21.30;56.80;;;;;;5163912;28;20042;-79
2020/12/21 00:31:23;;;;;;;5.82;3.80;;;21.30;56.70;;;;;;5143047;28;20051;-79
2020/12/21 00:33:53;;;;;;;4.00;3.60;;;21.30;56.80;;;;;;5163936;28;20110;-78
2020/12/21 00:36:24;;;;;;;4.25;3.67;;;21.30;56.80;;;;;;5138791;28;20117;-79
2020/12/21 00:38:57;;;;;;;4.00;3.17;;;21.30;56.70;;;;;;5180835;28;20093;-79
2020/12/21 00:41:27;;;;;;;5.43;3.40;;;21.30;56.80;;;;;;5161932;28;20034;-78
2020/12/21 00:43:58;;;;;;;4.20;3.55;;;21.30;56.70;;;;;;5160177;28;20096;-78
2020/12/21 00:46:29;;;;;;;4.45;3.92;;;21.30;56.50;;;;;;5156744;28;20031;-79
2020/12/21 00:48:59;;;;;;;4.20;3.50;;;21.30;56.80;;;;;;5160757;28;20027;-79
2020/12/21 00:51:30;;;;;;;5.07;3.17;;;21.30;56.70;;;;;;5157391;28;20109;-79
2020/12/21 00:54:01;;;;;;;4.65;3.40;;;21.30;56.70;;;;;;5152343;28;20087;-79
2020/12/21 00:56:31;;;;;;;4.50;3.30;;;21.30;56.80;;;;;;5143673;28;20042;-79
2020/12/21 00:59:02;;;;;;;3.85;3.30;;;21.30;56.80;;;;;;5148059;28;20030;-80
2020/12/21 01:01:32;;;;;;;3.70;3.30;;;21.30;56.50;;;;;;5146174;28;20058;-79
2020/12/21 01:04:04;;;;;;;3.85;3.05;;;21.30;56.60;;;;;;5132392;28;20034;-79
2020/12/21 01:06:35;;;;;;;4.45;3.50;;;21.30;56.70;;;;;;5144274;28;20046;-79
2020/12/21 01:09:10;;;;;;;6.18;3.50;;;21.30;56.60;;;;;;5145269;28;20077;-79
2020/12/21 01:11:40;;;;;;;3.70;3.10;;;21.30;56.40;;;;;;5144443;28;20118;-79
2020/12/21 01:14:11;;;;;;;3.67;3.30;;;21.30;56.40;;;;;;5145433;28;20035;-80
2020/12/21 01:16:41;;;;;;;4.30;2.97;;;21.30;56.20;;;;;;5143098;28;20036;-79
2020/12/21 01:19:12;;;;;;;4.25;3.53;;;21.30;56.30;;;;;;5128724;29;20070;-79
2020/12/21 01:21:42;;;;;;;3.67;2.97;;;21.30;56.40;;;;;;5131672;28;20382;-78
2020/12/21 01:24:13;;;;;;;4.20;2.97;;;21.30;56.30;;;;;;5147897;28;20042;-79
2020/12/21 01:26:43;;;;;;;4.15;3.15;;;21.30;56.40;;;;;;5147568;28;20405;-79
2020/12/21 01:29:14;;;;;;;4.32;3.00;;;21.30;56.40;;;;;;5147695;28;20038;-79
2020/12/21 01:31:44;;;;;;;4.15;2.95;;;21.30;56.20;;;;;;5146479;28;20058;-78
2020/12/21 01:34:15;;;;;;;4.32;2.67;;;21.30;56.40;;;;;;5147669;28;20370;-78
2020/12/21 01:36:45;;;;;;;4.20;2.97;;;21.30;56.20;;;;;;5155261;28;20030;-78
2020/12/21 01:39:16;;;;;;;3.00;2.60;;;21.30;56.20;;;;;;5177565;28;20023;-78
2020/12/21 01:41:46;;;;;;;3.28;2.97;;;21.30;56.50;;;;;;5148269;28;20023;-80
2020/12/21 01:44:17;;;;;;;3.75;3.05;;;21.30;56.50;;;;;;5138622;28;20019;-79
2020/12/21 01:46:47;;;;;;;6.70;3.10;;;21.30;56.40;;;;;;5147881;28;20039;-79
2020/12/21 01:49:20;;;;;;;4.38;3.13;;;21.30;56.50;;;;;;5115584;29;20034;-79
2020/12/21 01:51:51;;;;;;;3.80;3.13;;;21.30;56.50;;;;;;5137590;28;20061;-79
2020/12/21 01:54:21;;;;;;;4.55;2.67;;;21.30;56.50;;;;;;5158336;28;20035;-79
2020/12/21 01:56:52;;;;;;;4.75;2.90;;;21.30;56.40;;;;;;5151894;28;20050;-79
2020/12/21 01:59:23;;;;;;;4.93;2.78;;;21.30;56.10;;;;;;5128302;28;20118;-79
2020/12/21 02:01:53;;;;;;;4.68;2.65;;;21.30;56.50;;;;;;5133467;28;20142;-78
2020/12/21 02:04:24;;;;;;;5.97;3.03;;;21.30;56.50;;;;;;5147275;28;20053;-79
2020/12/21 02:06:54;;;;;;;5.78;3.92;;;21.40;57.70;;;;;;5133086;28;20031;-78
2020/12/21 02:09:25;;;;;;;5.45;3.90;;;21.40;60.10;;;;;;5150671;28;20037;-78
2020/12/21 02:11:56;;;;;;;8.05;3.90;;;21.30;61.00;;;;;;5137364;28;20041;-78
2020/12/21 02:14:26;;;;;;;8.10;4.00;;;21.20;62.20;;;;;;5132363;28;20034;-78
2020/12/21 02:16:57;;;;;;;6.07;3.80;;;21.30;63.00;;;;;;5129425;28;20102;-78
2020/12/21 02:19:27;;;;;;;5.20;3.58;;;21.40;62.70;;;;;;5141713;28;20034;-78
2020/12/21 02:21:57;;;;;;;6.90;3.60;;;21.40;62.20;;;;;;5134237;28;20035;-78
2020/12/21 02:24:28;;;;;;;5.10;4.00;;;21.40;62.50;;;;;;5159437;28;20085;-78
2020/12/21 02:26:58;;;;;;;6.35;3.53;;;21.30;62.30;;;;;;5145697;28;20035;-77
2020/12/21 02:29:29;;;;;;;6.85;3.80;;;21.30;62.60;;;;;;5124970;28;20122;-78
2020/12/21 02:32:00;;;;;;;5.05;3.75;;;21.20;62.60;;;;;;5136992;28;20039;-78
2020/12/21 02:34:30;;;;;;;7.63;3.30;;;21.20;62.90;;;;;;5144967;28;20030;-78
2020/12/21 02:37:00;;;;;;;9.48;4.22;;;21.10;61.10;;;;;;5155488;28;20069;-79
2020/12/21 02:39:31;;;;;;;6.03;3.67;;;21.00;58.40;;;;;;5165826;28;20038;-77
2020/12/21 02:42:01;;;;;;;5.45;3.92;;;20.90;59.40;;;;;;5164520;28;20068;-78
2020/12/21 02:44:32;;;;;;;7.03;3.70;;;20.80;58.40;;;;;;5163395;28;20026;-78
2020/12/21 02:47:02;;;;;;;5.22;3.53;;;20.80;58.60;;;;;;5145784;28;20042;-79
2020/12/21 02:49:33;;;;;;;6.53;3.40;;;20.80;59.00;;;;;;5157055;28;20030;-78
2020/12/21 02:52:03;;;;;;;4.88;3.35;;;20.70;60.70;;;;;;5140138;28;20046;-78
2020/12/21 02:54:34;;;;;;;7.72;3.20;;;20.60;58.40;;;;;;5140550;28;20499;-78
2020/12/21 02:57:05;;;;;;;5.78;3.55;;;20.70;63.70;;;;;;5141110;28;20039;-79
2020/12/21 02:59:35;;;;;;;4.65;3.13;;;20.70;59.50;;;;;;5127770;28;20422;-77
2020/12/21 03:02:06;;;;;;;4.13;3.08;;;20.70;60.20;;;;;;5152185;28;20844;-79
2020/12/21 03:04:47;;;;;;;4.18;3.00;;;20.70;59.40;;;;;;5161801;28;20035;-80
2020/12/21 03:07:18;;;;;;;3.90;3.17;;;20.70;60.60;;;;;;5100537;29;20035;-79
2020/12/21 03:09:48;;;;;;;3.97;2.83;;;20.70;58.10;;;;;;5125598;28;20042;-78
2020/12/21 03:12:19;;;;;;;4.45;3.05;;;20.70;59.10;;;;;;5125747;28;20391;-77
2020/12/21 03:14:49;;;;;;;4.38;3.05;;;20.70;60.30;;;;;;5144887;28;20038;-77
2020/12/21 03:17:20;;;;;;;3.95;2.80;;;20.70;58.90;;;;;;5141810;28;20587;-77
2020/12/21 03:19:50;;;;;;;4.40;3.05;;;20.70;59.00;;;;;;5138270;28;20050;-78
2020/12/21 03:22:22;;;;;;;4.57;3.08;;;20.70;58.50;;;;;;5138380;28;20062;-77
2020/12/21 03:24:53;;;;;;;3.03;2.60;;;20.60;58.80;;;;;;5142266;28;20026;-77
2020/12/21 03:27:24;;;;;;;4.15;2.83;;;20.60;60.90;;;;;;5143830;28;20038;-80
2020/12/21 03:29:54;;;;;;;3.85;2.70;;;20.60;59.20;;;;;;5133036;28;20039;-77
2020/12/21 03:32:25;;;;;;;4.43;2.83;;;20.60;59.80;;;;;;5141594;28;20039;-77
2020/12/21 03:34:55;;;;;;;4.53;2.60;;;20.60;59.60;;;;;;5123913;28;20042;-76
2020/12/21 03:37:25;;;;;;;4.78;2.58;;;20.60;59.40;;;;;;5136514;28;20117;-77
2020/12/21 03:39:56;;;;;;;4.15;2.85;;;20.60;59.50;;;;;;5143985;28;20533;-79
2020/12/21 03:42:27;;;;;;;4.93;2.95;;;20.60;59.40;;;;;;5141521;28;20090;-81
2020/12/21 03:44:57;;;;;;;4.53;2.60;;;20.60;59.40;;;;;;5159386;28;20393;-78
2020/12/21 03:47:28;;;;;;;4.80;2.53;;;20.60;60.40;;;;;;5136918;28;20074;-78
2020/12/21 03:49:58;;;;;;;5.28;2.53;;;20.60;60.70;;;;;;5159002;28;20030;-78
2020/12/21 03:52:29;;;;;;;3.03;2.40;;;20.60;59.40;;;;;;5145025;28;20551;-77
2020/12/21 03:54:59;;;;;;;3.83;2.58;;;20.60;59.80;;;;;;5142744;28;20030;-78
2020/12/21 03:57:29;;;;;;;3.67;2.53;;;20.50;59.70;;;;;;5134287;28;20452;-78
2020/12/21 04:00:00;;;;;;;3.90;2.53;;;20.50;59.30;;;;;;5129622;28;20039;-78
2020/12/21 04:02:33;;;;;;;4.25;2.42;;;20.50;59.70;;;;;;5148914;28;20047;-78
2020/12/21 04:05:04;;;;;;;3.38;2.08;;;20.50;59.80;;;;;;5145038;28;20053;-79
2020/12/21 04:07:35;;;;;;;7.57;2.30;;;20.60;60.10;;;;;;5141959;28;20126;-78
2020/12/21 04:10:06;;;;;;;6.57;2.40;;;20.60;63.20;;;;;;5153672;28;20137;-78
2020/12/21 04:12:37;;;;;;;3.58;2.28;;;20.60;60.30;;;;;;5150394;28;20121;-78
2020/12/21 04:15:07;;;;;;;4.13;2.38;;;20.50;60.60;;;;;;5158211;28;20045;-78
2020/12/21 04:17:38;;;;;;;4.63;2.53;;;20.60;60.90;;;;;;5126295;28;20027;-77
2020/12/21 04:20:08;;;;;;;4.35;2.42;;;20.60;61.70;;;;;;5138680;28;20050;-77
2020/12/21 04:22:39;;;;;;;3.22;2.10;;;20.60;63.20;;;;;;5144104;28;20051;-78
2020/12/21 04:25:09;;;;;;;7.75;2.50;;;20.60;62.20;;;;;;5140154;28;20035;-77
2020/12/21 04:27:40;;;;;;;4.50;2.17;;;20.60;59.90;;;;;;5141810;28;20054;-77
2020/12/21 04:30:10;;;;;;;3.28;1.95;;;20.50;60.50;;;;;;5145811;28;20031;-78
2020/12/21 04:32:41;;;;;;;6.82;2.30;;;20.50;63.20;;;;;;5148778;28;20510;-76
2020/12/21 04:35:11;;;;;;;4.38;2.47;;;20.60;63.80;;;;;;5138414;28;20094;-76
2020/12/21 04:37:42;;;;;;;4.35;2.35;;;20.70;63.60;;;;;;5151101;28;20502;-76
2020/12/21 04:40:12;;;;;;;3.92;2.30;;;20.70;62.80;;;;;;5161172;28;20489;-78
2020/12/21 04:42:50;;;;;;;3.80;1.85;;;20.70;63.00;;;;;;5161018;28;20031;-78
2020/12/21 04:45:20;;;;;;;4.03;2.25;;;20.70;63.60;;;;;;5139602;28;20035;-78
2020/12/21 04:47:51;;;;;;;4.30;2.10;;;20.70;62.30;;;;;;5146526;28;20110;-78
2020/12/21 04:50:21;;;;;;;5.85;2.30;;;20.70;60.70;;;;;;5145885;28;20042;-77
2020/12/21 04:52:52;;;;;;;3.45;2.13;;;20.70;60.70;;;;;;5140408;28;20405;-76
2020/12/21 04:55:24;;;;;;;2.63;1.88;;;20.70;60.10;;;;;;5162101;28;20022;-77
2020/12/21 04:58:04;;;;;;;3.63;1.92;;;20.70;62.90;;;;;;5143854;28;20034;-76
2020/12/21 05:00:34;;;;;;;3.85;1.80;;;20.70;62.40;;;;;;5135006;28;20035;-80
2020/12/21 05:03:05;;;;;;;2.72;1.80;;;20.70;60.70;;;;;;5163523;28;20034;-78
2020/12/21 05:05:40;;;;;;;3.80;2.05;;;20.70;63.70;;;;;;5181458;28;20080;-78
2020/12/21 05:08:12;;;;;;;6.73;2.17;;;20.70;62.20;;;;;;5161749;28;20401;-77
2020/12/21 05:10:56;;;;;;;3.10;1.80;;;20.70;61.70;;;;;;5151639;28;20032;-79
2020/12/21 05:13:27;;;;;;;2.88;1.75;;;20.70;62.30;;;;;;5162916;28;20320;-76
2020/12/21 05:15:57;;;;;;;2.95;1.83;;;20.70;62.90;;;;;;5143443;28;20126;-77
2020/12/21 05:18:34;;;;;;;4.43;2.45;;;20.70;62.50;;;;;;5129395;28;20042;-77
2020/12/21 05:21:06;;;;;;;3.05;2.00;;;20.70;61.30;;;;;;5121650;28;20127;-76
2020/12/21 05:23:37;;;;;;;3.72;1.95;;;20.80;62.30;;;;;;5125296;28;20482;-80
2020/12/21 05:26:09;;;;;;;3.15;2.13;;;20.80;63.50;;;;;;5143056;28;20038;-77
2020/12/21 05:28:40;;;;;;;3.85;2.00;;;20.70;60.70;;;;;;5158123;28;20035;-78
2020/12/21 05:31:11;;;;;;;3.55;2.00;;;20.70;62.70;;;;;;5150842;28;20633;-80
2020/12/21 05:33:45;;;;;;;5.13;2.55;;;20.70;62.50;;;;;;5165221;28;20053;-80
2020/12/21 05:36:20;;;;;;;5.65;1.90;;;20.70;62.60;;;;;;5153018;28;20583;-77
2020/12/21 05:38:55;;;;;;;;;;;20.70;62.00;;;;;;5141653;28;20023;-78
2020/12/21 05:41:25;;;;;;;4.78;2.13;;;20.70;63.20;;;;;;5142887;28;19914;-77
2020/12/21 05:44:02;;;;;;;4.00;2.35;;;20.70;62.60;;;;;;5143248;28;20031;-79
2020/12/21 05:46:33;;;;;;;4.65;2.30;;;20.70;63.10;;;;;;5130232;28;20066;-78
2020/12/21 05:49:04;;;;;;;5.20;2.20;;;20.60;61.40;;;;;;5144107;28;20109;-77
2020/12/21 05:51:38;;;;;;;3.30;1.83;;;20.70;62.60;;;;;;5160117;28;20449;-79
2020/12/21 05:54:09;;;;;;;6.45;2.00;;;20.80;63.90;;;;;;5157010;28;20550;-78
2020/12/21 05:56:39;;;;;;;9.18;1.95;;;20.80;64.80;;;;;;5124366;28;20043;-78
2020/12/21 05:59:10;;;;;;;6.30;1.83;;;20.90;64.30;;;;;;5127948;28;20430;-78
2020/12/21 06:01:40;;;;;;;3.53;2.05;;;20.90;62.70;;;;;;5147841;28;20035;-78
2020/12/21 06:04:11;;;;;;;5.00;1.75;;;20.90;62.00;;;;;;5141527;28;20038;-78
2020/12/21 06:06:41;;;;;;;5.00;2.55;;;20.80;64.50;;;;;;5131570;28;20413;-77
2020/12/21 06:09:12;;;;;;;4.80;2.08;;;20.70;60.90;;;;;;5158917;28;20046;-79
2020/12/21 06:11:42;;;;;;;5.18;1.75;;;20.80;62.80;;;;;;5143420;28;20409;-77
2020/12/21 06:14:13;;;;;;;6.07;2.42;;;20.80;62.20;;;;;;5144302;28;20035;-79
2020/12/21 06:16:43;;;;;;;3.20;2.03;;;20.80;62.80;;;;;;5130642;28;20622;-78
2020/12/21 06:19:22;;;;;;;5.47;2.17;;;20.80;62.80;;;;;;5141074;28;20038;-78
2020/12/21 06:21:53;;;;;;;4.50;2.20;;;20.80;62.00;;;;;;5127569;28;20043;-77
2020/12/21 06:24:24;;;;;;;3.72;1.92;;;20.80;61.40;;;;;;5142222;28;20533;-77
2020/12/21 06:26:55;;;;;;;4.15;2.03;;;20.70;61.30;;;;;;5157832;28;20126;-78
2020/12/21 06:29:26;;;;;;;4.32;2.00;;;20.70;61.00;;;;;;5158379;28;20154;-78
2020/12/21 06:32:04;;;;;;;4.45;1.90;;;20.70;61.50;;;;;;5142422;28;20034;-77
2020/12/21 06:34:35;;;;;;;4.07;2.10;;;20.80;61.10;;;;;;5139665;28;20038;-78
2020/12/21 06:37:12;;;;;;;2.95;1.60;;;20.80;61.30;;;;;;5126600;28;20046;-78
2020/12/21 06:39:42;;;;;;;5.20;1.67;;;20.70;63.40;;;;;;5143655;28;20370;-78
2020/12/21 06:42:21;;;;;;;4.72;2.22;;;20.80;63.80;;;;;;5138205;28;20042;-78
2020/12/21 06:44:54;;;;;;;5.40;1.48;;;20.90;64.50;;;;;;5157758;28;20039;-77
2020/12/21 06:47:26;;;;;;;4.55;1.70;;;20.90;64.00;;;;;;5142615;28;20043;-78
2020/12/21 06:49:56;;;;;;;3.92;1.75;;;20.90;63.90;;;;;;5150088;28;20101;-80
2020/12/21 06:52:27;;;;;;;4.82;2.05;;;21.00;63.90;;;;;;5147129;28;20059;-78
2020/12/21 06:54:57;;;;;;;3.88;2.00;;;20.90;60.10;;;;;;5165126;28;20042;-79
2020/12/21 06:57:28;;;;;;;5.80;2.38;;;20.80;59.40;;;;;;5162979;28;20571;-78
2020/12/21 06:59:59;;;;;;;5.43;2.25;;;20.70;59.30;;;;;;5163442;28;20074;-79
2020/12/21 07:02:30;;;;;;;6.68;2.15;;;20.70;60.70;;;;;;5142259;28;20038;-77
2020/12/21 07:05:08;;;;;;;5.20;1.77;;;20.60;60.60;;;;;;5146896;28;20033;-78
2020/12/21 07:07:38;;;;;;;4.03;1.30;;;20.70;61.20;;;;;;5137185;28;20031;-77
2020/12/21 07:10:12;;;;;;;3.53;1.75;;;20.90;63.90;;;;;;5140109;28;20085;-77
2020/12/21 07:12:43;;;;;;;4.70;1.65;;;21.00;64.50;;;;;;5133355;28;20509;-76
2020/12/21 07:15:13;;;;;;;3.85;1.30;;;21.10;63.80;;;;;;5143219;28;20047;-78
2020/12/21 07:17:44;;;;;;;5.20;1.50;;;21.20;63.60;;;;;;5155783;28;20405;-78
2020/12/21 07:20:14;;;;;;;3.65;1.77;;;21.30;63.60;;;;;;5154421;28;20030;-77
2020/12/21 07:22:45;;;;;;;4.78;1.67;;;21.30;63.40;;;;;;5142644;28;20505;-78
2020/12/21 07:25:15;;;;;;;3.25;1.23;;;21.30;63.20;;;;;;5158274;28;20106;-77
2020/12/21 07:27:48;;;;;;;4.63;1.30;;;21.40;63.20;;;;;;5152304;28;20086;-78
2020/12/21 07:30:24;;;;;;;4.55;1.42;;;21.40;63.20;;;;;;5140570;28;20054;-78
2020/12/21 07:32:54;;;;;;;3.42;1.73;;;21.30;62.20;;;;;;5172174;28;20034;-77
2020/12/21 07:35:25;;;;;;;3.80;1.50;;;21.30;61.80;;;;;;5156474;28;20033;-79
2020/12/21 07:37:55;;;;;;;4.38;1.38;;;21.20;61.40;;;;;;5148399;28;20521;-79
2020/12/21 07:40:26;;;;;;;2.70;1.48;;;21.20;61.00;;;;;;5137735;28;20027;-78
2020/12/21 07:42:57;;;;;;;3.45;1.65;;;21.20;61.00;;;;;;5132111;28;20568;-79
2020/12/21 07:45:28;;;;;;;3.20;1.45;;;21.10;60.50;;;;;;5149704;28;20183;-78
2020/12/21 07:47:58;;;;;;;3.20;1.60;;;21.10;60.30;;;;;;5135615;28;20031;-76
2020/12/21 07:50:29;;;;;;;3.45;1.30;;;21.10;60.00;;;;;;5133425;28;20030;-78
2020/12/21 07:53:01;;;;;;;2.92;1.50;;;21.10;59.80;;;;;;5164584;28;20026;-78
2020/12/21 07:55:32;;;;;;;2.92;1.58;;;21.10;60.30;;;;;;5156977;28;20656;-78
2020/12/21 07:58:13;;;;;;;3.08;1.45;;;21.10;59.40;;;;;;5151971;28;20038;-78
2020/12/21 08:00:57;;;;;;;4.93;1.55;;;21.10;59.20;;;;;;5146736;28;20047;-77
2020/12/21 08:03:29;;;;;;;4.75;1.50;;;21.10;59.00;;;;;;5144383;28;20093;-78
2020/12/21 08:06:22;;;;;;;3.65;1.45;;;21.10;58.80;;;;;;5146022;28;20077;-78
2020/12/21 08:08:53;;;;;;;2.45;1.35;;;21.10;58.60;;;;;;5162507;28;20022;-78
2020/12/21 08:11:23;;;;;;;4.57;2.70;;;21.10;59.10;;;;;;5144096;28;20563;-78
2020/12/21 08:13:54;;;;;;;3.33;1.73;;;21.00;57.10;;;;;;5148309;28;20033;-77
2020/12/21 08:16:25;;;;;;;6.15;2.20;;;20.90;57.90;;;;;;5160787;28;20683;-78
2020/12/21 08:18:55;;;;;;;3.15;1.50;;;20.80;58.10;;;;;;5196603;23;20049;-78
2020/12/21 08:21:26;;;;;;;4.15;1.63;;;20.80;58.20;;;;;;5196599;28;20030;-79
2020/12/21 08:23:57;;;;;;;3.47;1.70;;;20.90;57.90;;;;;;5201015;28;20639;-78
2020/12/21 08:26:28;;;;;;;3.47;1.33;;;21.00;57.80;;;;;;5226733;28;20493;-78
2020/12/21 08:28:58;;;;;;;3.30;1.40;;;21.00;57.60;;;;;;5193318;28;20029;-78
2020/12/21 08:31:29;;;;;;;3.53;1.48;;;21.00;57.30;;;;;;5219900;28;20033;-79
2020/12/21 08:34:02;;;;;;;3.03;1.50;;;20.90;57.20;;;;;;5246041;28;20028;-78
2020/12/21 08:36:33;;;;;;;3.75;1.60;;;21.00;57.20;;;;;;5207869;28;20040;-77
2020/12/21 08:39:14;;;;;;;3.88;1.50;;;21.00;57.00;;;;;;5195591;28;20109;-78
2020/12/21 08:41:51;;;;;;;4.60;1.90;;;21.00;56.70;;;;;;5199123;28;20498;-79
2020/12/21 08:44:23;;;;;;;2.80;1.25;;;21.00;56.70;;;;;;5210072;28;20419;-80
2020/12/21 08:46:55;;;;;;;4.22;1.50;;;21.00;56.60;;;;;;5214106;28;20029;-77
2020/12/21 08:49:27;;;;;;;3.15;1.17;;;20.90;56.40;;;;;;5198901;28;20025;-79
2020/12/21 08:52:04;;;;;;;3.42;1.40;;;20.90;56.40;;;;;;5178957;28;20046;-78
2020/12/21 08:54:34;;;;;;;4.30;1.58;;;21.00;56.20;;;;;;5192130;28;20022;-78
2020/12/21 08:57:05;;;;;;;3.97;1.48;;;21.00;56.00;;;;;;5235892;28;20123;-78
2020/12/21 08:59:37;;;;;;;2.47;1.10;;;21.00;55.80;;;;;;5218084;28;20086;-77
2020/12/21 09:02:08;;;;;;;5.10;2.05;;;21.00;56.90;;;;;;5218236;28;20048;-78
2020/12/21 09:04:38;;;;;;;4.60;2.13;;;21.00;55.00;;;;;;5214455;28;20021;-79
2020/12/21 09:07:09;;;;;;;9.45;1.70;;;21.00;60.20;;;;;;5211816;28;20028;-77
2020/12/21 09:09:39;;;;;;;4.90;1.60;;;21.10;61.90;;;;;;5212155;28;20044;-78
2020/12/21 09:12:10;;;;;;;7.80;1.40;;;21.10;60.40;;;;;;5208180;28;20029;-77
2020/12/21 09:14:40;;;;;;;5.10;1.63;;;21.10;61.50;;;;;;5218733;28;20040;-76
2020/12/21 09:17:11;;;;;;;3.17;1.20;;;21.20;62.30;;;;;;5195748;28;20041;-77
2020/12/21 09:19:41;;;;;;;4.97;1.40;;;21.20;62.40;;;;;;5219342;28;20431;-77
2020/12/21 09:22:12;;;;;;;6.25;1.65;;;21.30;62.40;;;;;;5202291;28;20499;-77
2020/12/21 09:24:42;;;;;;;3.78;1.50;;;21.30;62.40;;;;;;5210630;28;20029;-77
2020/12/21 09:27:13;;;;;;;3.97;1.30;;;21.30;62.50;;;;;;5212755;28;20705;-77
2020/12/21 09:29:43;;;;;;;2.85;1.33;;;21.20;62.80;;;;;;5194330;28;20053;-78
2020/12/21 09:32:14;;;;;;;4.82;1.35;;;21.30;62.70;;;;;;5212835;28;20407;-78
2020/12/21 09:34:44;;;;;;;3.88;1.35;;;21.30;62.80;;;;;;5233451;28;20062;-78
2020/12/21 09:37:15;;;;;;;3.10;1.30;;;21.30;62.60;;;;;;5245086;28;20040;-78
2020/12/21 09:39:45;;;;;;;7.28;1.40;;;21.30;62.60;;;;;;5214587;28;20029;-78
2020/12/21 09:42:16;;;;;;;5.45;1.45;;;21.30;62.30;;;;;;5247672;28;20538;-77
2020/12/21 09:44:49;;;;;;;2.83;1.40;;;21.30;62.00;;;;;;5225315;28;20026;-77
2020/12/21 09:47:19;;;;;;;6.97;1.35;;;21.40;62.00;;;;;;5204498;28;20033;-77
2020/12/21 09:49:50;;;;;;;4.57;1.73;;;21.40;62.10;;;;;;5227663;28;20364;-78
2020/12/21 09:52:21;;;;;;;3.85;1.50;;;21.40;62.10;;;;;;5218259;28;20415;-77
2020/12/21 09:54:51;;;;;;;5.15;1.60;;;21.40;62.20;;;;;;5230182;28;20502;-79
2020/12/21 09:57:22;;;;;;;8.93;1.65;;;21.40;61.90;;;;;;5227939;28;20040;-78
2020/12/21 09:59:52;;;;;;;4.70;1.73;;;21.40;61.80;;;;;;5212113;28;20083;-78
2020/12/21 10:02:23;;;;;;;3.33;1.50;;;21.20;61.30;;;;;;5190518;28;20048;-79
2020/12/21 10:04:53;;;;;;;9.18;2.05;;;21.10;61.70;;;;;;5190196;28;20044;-79
2020/12/21 10:07:24;;;;;;;3.15;1.20;;;21.00;58.70;;;;;;5190936;28;20499;-83
2020/12/21 10:09:54;;;;;;;3.78;1.60;;;21.10;62.50;;;;;;5211218;28;20035;-79
2020/12/21 10:12:25;;;;;;;6.18;1.55;;;21.10;62.50;;;;;;5231586;28;20036;-81
2020/12/21 10:14:55;;;;;;;4.53;1.33;;;21.10;61.50;;;;;;5232030;28;20045;-81
2020/12/21 10:17:26;;;;;;;4.70;1.80;;;21.00;60.80;;;;;;5230416;28;20100;-82
2020/12/21 10:19:56;;;;;;;9.25;2.45;;;21.00;58.20;;;;;;5223531;28;20044;-81
2020/12/21 10:22:27;;;;;;;4.45;2.00;;;20.90;58.60;;;;;;5210192;28;20033;-83
2020/12/21 10:24:57;;;;;;;7.90;1.65;;;20.90;58.60;;;;;;5208702;28;20029;-81
2020/12/21 10:27:29;;;;;;;8.75;1.85;;;20.90;57.30;;;;;;5210299;28;20032;-79
2020/12/21 10:29:59;;;;;;;4.35;1.60;;;20.90;57.20;;;;;;5211593;28;20021;-83
2020/12/21 10:32:30;;;;;;;4.93;2.20;;;20.90;57.60;;;;;;5191527;28;20403;-83
2020/12/21 10:35:00;;;;;;;6.85;2.10;;;21.00;57.20;;;;;;5207070;28;20041;-83
2020/12/21 10:37:31;;;;;;;5.28;1.83;;;21.00;56.80;;;;;;5224584;28;20077;-86
2020/12/21 10:40:01;;;;;;;5.60;2.10;;;21.00;57.00;;;;;;5210950;28;20046;-81
2020/12/21 10:42:32;;;;;;;5.63;2.08;;;21.00;57.40;;;;;;5207120;28;20507;-83
2020/12/21 10:45:02;;;;;;;4.68;1.75;;;21.00;57.00;;;;;;5206902;28;20041;-83
2020/12/21 10:47:33;;;;;;;6.45;1.92;;;21.00;57.10;;;;;;5204931;28;20466;-84
2020/12/21 10:50:03;;;;;;;4.32;1.70;;;21.10;57.20;;;;;;5208172;28;20121;-82
2020/12/21 10:52:34;;;;;;;4.75;1.63;;;21.10;57.10;;;;;;5220308;28;20036;-82
2020/12/21 10:55:04;;;;;;;3.22;1.30;;;21.10;56.90;;;;;;5208626;28;20059;-82
2020/12/21 10:57:35;;;;;;;3.85;1.60;;;21.10;56.90;;;;;;5224097;28;20020;-81
2020/12/21 11:00:06;;;;;;;6.22;1.90;;;21.10;56.90;;;;;;5207440;28;20036;-79
2020/12/21 11:02:36;;;;;;;8.73;2.50;;;21.20;57.20;;;;;;5200479;28;20040;-80
2020/12/21 11:05:07;;;;;;;12.23;2.85;;;21.20;57.50;;;;;;5217077;28;20488;-78
2020/12/21 11:07:37;;;;;;;13.82;3.42;;;21.10;57.60;;;;;;5190591;28;20061;-81
2020/12/21 11:10:09;;;;;;;10.10;2.65;;;21.10;57.90;;;;;;5221390;28;20032;-80
2020/12/21 11:12:40;;;;;;;10.77;3.33;;;21.20;58.10;;;;;;5210159;28;20150;-79
2020/12/21 11:15:10;;;;;;;11.80;2.60;;;21.20;58.50;;;;;;5205250;28;20132;-78
2020/12/21 11:17:41;;;;;;;13.45;3.10;;;21.20;56.60;;;;;;5201606;28;20033;-80
2020/12/21 11:20:11;;;;;;;10.00;3.22;;;21.20;57.90;;;;;;5206530;28;20423;-79
2020/12/21 11:22:43;;;;;;;10.23;2.80;;;21.10;57.50;;;;;;5206088;28;20041;-79
2020/12/21 11:25:14;;;;;;;9.88;2.50;;;21.10;57.00;;;;;;5185064;28;20227;-78
2020/12/21 11:27:44;;;;;;;9.55;2.67;;;21.10;56.70;;;;;;5175085;28;20163;-78
2020/12/21 11:30:15;;;;;;;8.38;2.70;;;21.10;56.30;;;;;;5173264;28;20059;-78
2020/12/21 11:32:45;;;;;;;9.75;2.17;;;21.10;56.00;;;;;;5216910;28;20036;-80
2020/12/21 11:35:16;;;;;;;8.32;2.40;;;21.10;55.70;;;;;;5199362;28;20029;-79
2020/12/21 11:37:46;;;;;;;6.63;2.08;;;21.10;55.60;;;;;;5205491;28;20056;-80
2020/12/21 11:40:17;;;;;;;6.07;2.17;;;21.10;55.40;;;;;;5209396;28;20120;-81
2020/12/21 11:42:47;;;;;;;6.70;1.83;;;21.10;55.00;;;;;;5220443;28;20034;-78
2020/12/21 11:45:18;;;;;;;5.72;2.15;;;21.10;54.90;;;;;;5192213;28;20091;-78
2020/12/21 11:47:48;;;;;;;9.27;2.67;;;21.10;54.80;;;;;;5194999;28;20285;-79
2020/12/21 11:50:19;;;;;;;5.80;1.83;;;21.10;54.80;;;;;;5188004;28;20038;-79
2020/12/21 11:52:49;;;;;;;5.38;2.03;;;21.10;54.60;;;;;;5184717;28;20044;-78
2020/12/21 11:55:20;;;;;;;11.88;2.05;;;20.80;47.90;;;;;;5218239;28;20032;-79
2020/12/21 11:57:50;;;;;;;7.22;1.88;;;20.50;49.50;;;;;;5194588;28;20486;-78
2020/12/21 12:00:21;;;;;;;8.95;1.90;;;20.20;48.70;;;;;;5175369;28;20037;-77
2020/12/21 12:02:51;;;;;;;8.10;1.98;;;20.00;49.10;;;;;;5206611;28;20528;-77
2020/12/21 12:05:22;;;;;;;7.03;2.00;;;19.90;49.80;;;;;;5215199;28;20032;-78
2020/12/21 12:07:52;;;;;;;10.65;2.10;;;19.80;49.40;;;;;;5187293;28;20042;-77
2020/12/21 12:10:23;;;;;;;6.70;2.22;;;19.70;49.90;;;;;;5195795;28;20065;-77
2020/12/21 12:12:53;;;;;;;9.27;2.40;;;19.70;49.30;;;;;;5195103;28;20052;-77
2020/12/21 12:15:24;;;;;;;6.47;1.92;;;19.60;49.70;;;;;;5203700;28;20045;-77
2020/12/21 12:17:54;;;;;;;6.13;2.10;;;19.50;50.00;;;;;;5221308;28;20033;-76
2020/12/21 12:20:25;;;;;;;6.20;1.92;;;19.50;50.50;;;;;;5226725;28;20036;-79
2020/12/21 12:22:55;;;;;;;22.30;4.22;;;19.40;50.80;;;;;;5199165;28;20092;-78
2020/12/21 12:25:26;;;;;;;12.43;2.83;;;19.40;52.80;;;;;;5178512;28;20033;-78
2020/12/21 12:27:56;;;;;;;15.00;2.78;;;19.40;52.30;;;;;;5206157;28;20064;-76
2020/12/21 12:30:27;;;;;;;8.55;2.67;;;19.40;52.40;;;;;;5224929;28;20071;-80
2020/12/21 12:32:57;;;;;;;9.63;2.40;;;19.40;52.30;;;;;;5228073;28;20414;-78
2020/12/21 12:35:27;;;;;;;8.18;2.60;;;19.30;51.90;;;;;;5245053;28;20104;-78
2020/12/21 12:37:58;;;;;;;8.63;2.45;;;19.30;52.30;;;;;;5222615;28;20033;-78
2020/12/21 12:40:29;;;;;;;8.77;2.10;;;19.30;52.50;;;;;;5222804;28;20037;-78
2020/12/21 12:42:59;;;;;;;6.03;2.17;;;19.30;54.50;;;;;;5235094;28;20037;-77
2020/12/21 12:45:30;;;;;;;4.95;1.67;;;19.60;53.90;;;;;;5222987;28;20395;-78
2020/12/21 12:48:00;;;;;;;7.63;2.35;;;19.50;52.10;;;;;;5189477;28;20141;-78
2020/12/21 12:50:30;;;;;;;7.93;1.95;;;19.50;53.00;;;;;;5201654;28;20025;-78
2020/12/21 12:53:01;;;;;;;8.40;2.08;;;19.70;56.60;;;;;;5184589;28;20038;-78
2020/12/21 12:55:32;;;;;;;6.70;2.20;;;19.80;57.00;;;;;;5185706;28;20022;-78
2020/12/21 12:58:03;;;;;;;6.13;1.42;;;19.70;56.40;;;;;;5185601;28;20121;-77
2020/12/21 13:00:33;;;;;;;3.83;1.65;;;19.90;57.20;;;;;;5202238;28;20112;-78
2020/12/21 13:03:04;;;;;;;6.15;1.55;;;19.90;52.10;;;;;;5186544;28;20030;-78
2020/12/21 13:05:35;;;;;;;5.00;1.67;;;20.00;55.90;;;;;;5203356;28;20047;-78